sensor_id;sensor_type;location;lat;lon;timestamp;P1;durP1;ratioP1;P2;durP2;ratioP2
46745;SDS011;32493;50.514;9.678;2024-03-02T00:00:11;55.85;;;25.88;;
46745;SDS011;32493;50.514;9.678;2024-03-02T00:02:44;56.25;;;25.02;;
46745;SDS011;32493;50.514;9.678;2024-03-02T00:05:18;61.15;;;26.92;;
46745;SDS011;32493;50.514;9.678;2024-03-02T00:07:56;58.20;;;25.15;;
46745;SDS011;32493;50.514;9.678;2024-03-02T00:10:30;55.22;;;25.05;;
46745;SDS011;32493;50.514;9.678;2024-03-02T00:13:07;57.20;;;25.27;;
46745;SDS011;32493;50.514;9.678;2024-03-02T00:15:41;55.88;;;25.50;;
46745;SDS011;32493;50.514;9.678;2024-03-02T00:18:14;54.80;;;25.05;;
46745;SDS011;32493;50.514;9.678;2024-03-02T00:20:46;54.72;;;25.48;;
46745;SDS011;32493;50.514;9.678;2024-03-02T00:23:22;56.42;;;24.77;;
46745;SDS011;32493;50.514;9.678;2024-03-02T00:25:55;54.75;;;24.73;;
46745;SDS011;32493;50.514;9.678;2024-03-02T00:28:29;48.47;;;23.23;;
46745;SDS011;32493;50.514;9.678;2024-03-02T00:31:03;48.90;;;23.23;;
46745;SDS011;32493;50.514;9.678;2024-03-02T00:33:35;47.85;;;22.95;;
46745;SDS011;32493;50.514;9.678;2024-03-02T00:36:07;55.13;;;23.42;;
46745;SDS011;32493;50.514;9.678;2024-03-02T00:38:46;49.55;;;23.48;;
46745;SDS011;32493;50.514;9.678;2024-03-02T00:41:20;50.75;;;24.40;;
46745;SDS011;32493;50.514;9.678;2024-03-02T00:44:00;50.03;;;24.10;;
46745;SDS011;32493;50.514;9.678;2024-03-02T00:46:33;52.55;;;23.17;;
46745;SDS011;32493;50.514;9.678;2024-03-02T00:49:18;48.58;;;23.92;;
46745;SDS011;32493;50.514;9.678;2024-03-02T00:51:53;47.97;;;23.25;;
46745;SDS011;32493;50.514;9.678;2024-03-02T00:54:27;50.13;;;23.80;;
46745;SDS011;32493;50.514;9.678;2024-03-02T00:57:00;51.97;;;23.35;;
46745;SDS011;32493;50.514;9.678;2024-03-02T00:59:32;49.03;;;23.40;;
46745;SDS011;32493;50.514;9.678;2024-03-02T01:02:02;56.38;;;23.75;;
46745;SDS011;32493;50.514;9.678;2024-03-02T01:04:32;57.13;;;24.20;;
46745;SDS011;32493;50.514;9.678;2024-03-02T01:07:04;47.03;;;23.02;;
46745;SDS011;32493;50.514;9.678;2024-03-02T01:09:39;50.55;;;23.48;;
46745;SDS011;32493;50.514;9.678;2024-03-02T01:12:11;52.97;;;25.20;;
46745;SDS011;32493;50.514;9.678;2024-03-02T01:14:43;52.78;;;24.23;;
46745;SDS011;32493;50.514;9.678;2024-03-02T01:17:13;51.67;;;22.92;;
46745;SDS011;32493;50.514;9.678;2024-03-02T01:19:44;47.55;;;23.65;;
46745;SDS011;32493;50.514;9.678;2024-03-02T01:22:16;45.35;;;23.00;;
46745;SDS011;32493;50.514;9.678;2024-03-02T01:24:54;54.88;;;23.38;;
46745;SDS011;32493;50.514;9.678;2024-03-02T01:27:28;57.07;;;24.80;;
46745;SDS011;32493;50.514;9.678;2024-03-02T01:30:00;51.58;;;22.50;;
46745;SDS011;32493;50.514;9.678;2024-03-02T01:32:35;52.35;;;22.38;;
46745;SDS011;32493;50.514;9.678;2024-03-02T01:35:07;51.17;;;22.70;;
46745;SDS011;32493;50.514;9.678;2024-03-02T01:37:38;53.58;;;23.75;;
46745;SDS011;32493;50.514;9.678;2024-03-02T01:40:13;48.50;;;22.45;;
46745;SDS011;32493;50.514;9.678;2024-03-02T01:42:44;46.45;;;22.00;;
46745;SDS011;32493;50.514;9.678;2024-03-02T01:45:14;51.38;;;23.35;;
46745;SDS011;32493;50.514;9.678;2024-03-02T01:47:45;52.33;;;23.23;;
46745;SDS011;32493;50.514;9.678;2024-03-02T01:50:24;53.83;;;23.02;;
46745;SDS011;32493;50.514;9.678;2024-03-02T01:52:56;52.78;;;22.83;;
46745;SDS011;32493;50.514;9.678;2024-03-02T01:55:29;49.85;;;22.77;;
46745;SDS011;32493;50.514;9.678;2024-03-02T01:58:01;51.80;;;22.38;;
46745;SDS011;32493;50.514;9.678;2024-03-02T02:00:33;55.85;;;22.92;;
46745;SDS011;32493;50.514;9.678;2024-03-02T02:03:04;56.33;;;22.98;;
46745;SDS011;32493;50.514;9.678;2024-03-02T02:05:39;51.72;;;22.85;;
46745;SDS011;32493;50.514;9.678;2024-03-02T02:08:14;56.15;;;23.13;;
46745;SDS011;32493;50.514;9.678;2024-03-02T02:10:47;60.28;;;23.70;;
46745;SDS011;32493;50.514;9.678;2024-03-02T02:13:31;55.53;;;23.33;;
46745;SDS011;32493;50.514;9.678;2024-03-02T02:16:04;52.30;;;22.90;;
46745;SDS011;32493;50.514;9.678;2024-03-02T02:18:44;59.17;;;24.35;;
46745;SDS011;32493;50.514;9.678;2024-03-02T02:21:17;59.85;;;25.05;;
46745;SDS011;32493;50.514;9.678;2024-03-02T02:23:49;61.10;;;24.88;;
46745;SDS011;32493;50.514;9.678;2024-03-02T02:26:19;60.13;;;23.88;;
46745;SDS011;32493;50.514;9.678;2024-03-02T02:28:49;55.33;;;23.40;;
46745;SDS011;32493;50.514;9.678;2024-03-02T02:31:21;64.65;;;24.27;;
46745;SDS011;32493;50.514;9.678;2024-03-02T02:33:53;51.25;;;21.50;;
46745;SDS011;32493;50.514;9.678;2024-03-02T02:36:24;59.83;;;23.20;;
46745;SDS011;32493;50.514;9.678;2024-03-02T02:39:00;61.70;;;23.45;;
46745;SDS011;32493;50.514;9.678;2024-03-02T02:41:35;62.10;;;23.92;;
46745;SDS011;32493;50.514;9.678;2024-03-02T02:44:06;59.85;;;23.88;;
46745;SDS011;32493;50.514;9.678;2024-03-02T02:46:38;69.20;;;25.38;;
46745;SDS011;32493;50.514;9.678;2024-03-02T02:49:11;75.93;;;28.10;;
46745;SDS011;32493;50.514;9.678;2024-03-02T02:51:45;80.22;;;27.85;;
46745;SDS011;32493;50.514;9.678;2024-03-02T02:54:18;76.32;;;27.20;;
46745;SDS011;32493;50.514;9.678;2024-03-02T02:56:48;83.85;;;27.55;;
46745;SDS011;32493;50.514;9.678;2024-03-02T02:59:19;83.22;;;26.98;;
46745;SDS011;32493;50.514;9.678;2024-03-02T03:01:51;77.72;;;25.42;;
46745;SDS011;32493;50.514;9.678;2024-03-02T03:04:25;74.50;;;24.98;;
46745;SDS011;32493;50.514;9.678;2024-03-02T03:06:55;70.05;;;23.85;;
46745;SDS011;32493;50.514;9.678;2024-03-02T03:09:28;79.50;;;24.80;;
46745;SDS011;32493;50.514;9.678;2024-03-02T03:11:58;82.78;;;25.77;;
46745;SDS011;32493;50.514;9.678;2024-03-02T03:14:30;80.35;;;26.23;;
46745;SDS011;32493;50.514;9.678;2024-03-02T03:17:01;88.38;;;27.98;;
46745;SDS011;32493;50.514;9.678;2024-03-02T03:19:35;77.72;;;25.33;;
46745;SDS011;32493;50.514;9.678;2024-03-02T03:22:08;79.68;;;25.73;;
46745;SDS011;32493;50.514;9.678;2024-03-02T03:24:42;94.68;;;25.25;;
46745;SDS011;32493;50.514;9.678;2024-03-02T03:27:12;92.93;;;26.23;;
46745;SDS011;32493;50.514;9.678;2024-03-02T03:29:43;102.50;;;28.02;;
46745;SDS011;32493;50.514;9.678;2024-03-02T03:32:14;87.47;;;27.38;;
46745;SDS011;32493;50.514;9.678;2024-03-02T03:34:45;93.07;;;28.17;;
46745;SDS011;32493;50.514;9.678;2024-03-02T03:37:17;85.05;;;28.13;;
46745;SDS011;32493;50.514;9.678;2024-03-02T03:39:52;102.63;;;29.98;;
46745;SDS011;32493;50.514;9.678;2024-03-02T03:42:22;89.00;;;28.20;;
46745;SDS011;32493;50.514;9.678;2024-03-02T03:44:54;113.30;;;30.75;;
46745;SDS011;32493;50.514;9.678;2024-03-02T03:47:26;94.78;;;29.23;;
46745;SDS011;32493;50.514;9.678;2024-03-02T03:49:57;105.18;;;29.98;;
46745;SDS011;32493;50.514;9.678;2024-03-02T03:52:27;103.90;;;29.70;;
46745;SDS011;32493;50.514;9.678;2024-03-02T03:54:59;100.97;;;31.55;;
46745;SDS011;32493;50.514;9.678;2024-03-02T03:57:32;95.95;;;29.63;;
46745;SDS011;32493;50.514;9.678;2024-03-02T04:00:10;103.22;;;30.42;;
46745;SDS011;32493;50.514;9.678;2024-03-02T04:02:44;94.25;;;29.60;;
46745;SDS011;32493;50.514;9.678;2024-03-02T04:05:15;124.22;;;27.45;;
46745;SDS011;32493;50.514;9.678;2024-03-02T04:07:48;85.28;;;25.45;;
46745;SDS011;32493;50.514;9.678;2024-03-02T04:10:20;103.45;;;28.23;;
46745;SDS011;32493;50.514;9.678;2024-03-02T04:12:52;99.30;;;29.23;;
46745;SDS011;32493;50.514;9.678;2024-03-02T04:15:24;101.63;;;27.63;;
46745;SDS011;32493;50.514;9.678;2024-03-02T04:17:54;106.85;;;29.65;;
46745;SDS011;32493;50.514;9.678;2024-03-02T04:20:28;98.00;;;29.65;;
46745;SDS011;32493;50.514;9.678;2024-03-02T04:22:59;105.38;;;30.75;;
46745;SDS011;32493;50.514;9.678;2024-03-02T04:25:37;104.55;;;29.35;;
46745;SDS011;32493;50.514;9.678;2024-03-02T04:28:07;114.35;;;30.63;;
46745;SDS011;32493;50.514;9.678;2024-03-02T04:30:39;116.72;;;31.92;;
46745;SDS011;32493;50.514;9.678;2024-03-02T04:33:12;124.72;;;33.85;;
46745;SDS011;32493;50.514;9.678;2024-03-02T04:35:46;123.32;;;32.58;;
46745;SDS011;32493;50.514;9.678;2024-03-02T04:38:16;113.60;;;33.50;;
46745;SDS011;32493;50.514;9.678;2024-03-02T04:40:52;112.65;;;32.72;;
46745;SDS011;32493;50.514;9.678;2024-03-02T04:43:22;109.30;;;32.10;;
46745;SDS011;32493;50.514;9.678;2024-03-02T04:45:52;105.20;;;32.20;;
46745;SDS011;32493;50.514;9.678;2024-03-02T04:48:26;114.25;;;32.97;;
46745;SDS011;32493;50.514;9.678;2024-03-02T04:50:56;115.80;;;32.60;;
46745;SDS011;32493;50.514;9.678;2024-03-02T04:53:27;114.95;;;32.42;;
46745;SDS011;32493;50.514;9.678;2024-03-02T04:56:04;108.72;;;31.73;;
46745;SDS011;32493;50.514;9.678;2024-03-02T04:58:50;114.95;;;31.90;;
46745;SDS011;32493;50.514;9.678;2024-03-02T05:01:25;114.38;;;33.42;;
46745;SDS011;32493;50.514;9.678;2024-03-02T05:03:56;106.93;;;33.33;;
46745;SDS011;32493;50.514;9.678;2024-03-02T05:06:29;102.47;;;32.40;;
46745;SDS011;32493;50.514;9.678;2024-03-02T05:09:00;114.60;;;33.13;;
46745;SDS011;32493;50.514;9.678;2024-03-02T05:11:35;111.65;;;32.00;;
46745;SDS011;32493;50.514;9.678;2024-03-02T05:17:10;105.75;;;29.77;;
46745;SDS011;32493;50.514;9.678;2024-03-02T05:19:41;104.07;;;31.13;;
46745;SDS011;32493;50.514;9.678;2024-03-02T05:22:11;103.38;;;30.73;;
46745;SDS011;32493;50.514;9.678;2024-03-02T05:24:43;105.68;;;32.10;;
46745;SDS011;32493;50.514;9.678;2024-03-02T05:27:16;104.05;;;31.33;;
46745;SDS011;32493;50.514;9.678;2024-03-02T05:29:50;101.70;;;31.30;;
46745;SDS011;32493;50.514;9.678;2024-03-02T05:32:21;96.22;;;31.20;;
46745;SDS011;32493;50.514;9.678;2024-03-02T05:34:52;91.22;;;30.88;;
46745;SDS011;32493;50.514;9.678;2024-03-02T05:37:22;104.00;;;30.50;;
46745;SDS011;32493;50.514;9.678;2024-03-02T05:39:53;92.70;;;29.40;;
46745;SDS011;32493;50.514;9.678;2024-03-02T05:42:27;96.70;;;30.15;;
46745;SDS011;32493;50.514;9.678;2024-03-02T05:44:58;90.78;;;29.50;;
46745;SDS011;32493;50.514;9.678;2024-03-02T05:47:28;88.45;;;29.25;;
46745;SDS011;32493;50.514;9.678;2024-03-02T05:50:00;88.65;;;28.48;;
46745;SDS011;32493;50.514;9.678;2024-03-02T05:52:31;82.20;;;29.10;;
46745;SDS011;32493;50.514;9.678;2024-03-02T05:55:01;83.88;;;29.33;;
46745;SDS011;32493;50.514;9.678;2024-03-02T05:57:35;86.82;;;30.42;;
46745;SDS011;32493;50.514;9.678;2024-03-02T06:00:24;89.90;;;29.02;;
46745;SDS011;32493;50.514;9.678;2024-03-02T06:02:58;89.88;;;28.92;;
46745;SDS011;32493;50.514;9.678;2024-03-02T06:05:28;82.38;;;28.50;;
46745;SDS011;32493;50.514;9.678;2024-03-02T06:07:58;88.85;;;29.80;;
46745;SDS011;32493;50.514;9.678;2024-03-02T06:10:28;89.28;;;29.75;;
46745;SDS011;32493;50.514;9.678;2024-03-02T06:13:05;82.13;;;28.90;;
46745;SDS011;32493;50.514;9.678;2024-03-02T06:15:35;82.05;;;28.92;;
46745;SDS011;32493;50.514;9.678;2024-03-02T06:18:06;85.80;;;29.50;;
46745;SDS011;32493;50.514;9.678;2024-03-02T06:20:38;85.38;;;30.08;;
46745;SDS011;32493;50.514;9.678;2024-03-02T06:23:10;80.90;;;29.35;;
46745;SDS011;32493;50.514;9.678;2024-03-02T06:25:41;76.60;;;28.98;;
46745;SDS011;32493;50.514;9.678;2024-03-02T06:28:15;81.15;;;28.88;;
46745;SDS011;32493;50.514;9.678;2024-03-02T06:30:45;70.32;;;27.42;;
46745;SDS011;32493;50.514;9.678;2024-03-02T06:33:15;79.35;;;28.48;;
46745;SDS011;32493;50.514;9.678;2024-03-02T06:35:46;70.10;;;27.23;;
46745;SDS011;32493;50.514;9.678;2024-03-02T06:38:18;67.47;;;27.48;;
46745;SDS011;32493;50.514;9.678;2024-03-02T06:40:48;69.55;;;27.75;;
46745;SDS011;32493;50.514;9.678;2024-03-02T06:43:24;69.15;;;26.75;;
46745;SDS011;32493;50.514;9.678;2024-03-02T06:45:54;62.95;;;25.90;;
46745;SDS011;32493;50.514;9.678;2024-03-02T06:48:24;69.35;;;26.98;;
46745;SDS011;32493;50.514;9.678;2024-03-02T06:50:57;62.90;;;26.35;;
46745;SDS011;32493;50.514;9.678;2024-03-02T06:53:29;62.85;;;25.55;;
46745;SDS011;32493;50.514;9.678;2024-03-02T06:56:03;58.15;;;25.40;;
46745;SDS011;32493;50.514;9.678;2024-03-02T06:58:37;57.47;;;24.52;;
46745;SDS011;32493;50.514;9.678;2024-03-02T07:01:07;56.78;;;24.77;;
46745;SDS011;32493;50.514;9.678;2024-03-02T07:03:38;56.17;;;25.15;;
46745;SDS011;32493;50.514;9.678;2024-03-02T07:06:09;51.35;;;23.83;;
46745;SDS011;32493;50.514;9.678;2024-03-02T07:08:42;51.80;;;23.67;;
46745;SDS011;32493;50.514;9.678;2024-03-02T07:11:12;48.30;;;22.98;;
46745;SDS011;32493;50.514;9.678;2024-03-02T07:13:46;47.85;;;23.65;;
46745;SDS011;32493;50.514;9.678;2024-03-02T07:16:16;49.20;;;23.25;;
46745;SDS011;32493;50.514;9.678;2024-03-02T07:18:59;48.13;;;22.13;;
46745;SDS011;32493;50.514;9.678;2024-03-02T07:21:30;43.08;;;20.65;;
46745;SDS011;32493;50.514;9.678;2024-03-02T07:24:00;41.50;;;21.38;;
46745;SDS011;32493;50.514;9.678;2024-03-02T07:26:31;40.17;;;21.25;;
46745;SDS011;32493;50.514;9.678;2024-03-02T07:29:07;42.13;;;21.10;;
46745;SDS011;32493;50.514;9.678;2024-03-02T07:31:39;35.65;;;18.77;;
46745;SDS011;32493;50.514;9.678;2024-03-02T07:34:09;37.88;;;19.80;;
46745;SDS011;32493;50.514;9.678;2024-03-02T07:36:41;33.42;;;18.77;;
46745;SDS011;32493;50.514;9.678;2024-03-02T07:39:12;35.15;;;19.55;;
46745;SDS011;32493;50.514;9.678;2024-03-02T07:41:44;33.28;;;18.73;;
46745;SDS011;32493;50.514;9.678;2024-03-02T07:44:17;37.00;;;18.80;;
46745;SDS011;32493;50.514;9.678;2024-03-02T07:46:48;34.03;;;17.75;;
46745;SDS011;32493;50.514;9.678;2024-03-02T07:49:19;34.33;;;18.23;;
46745;SDS011;32493;50.514;9.678;2024-03-02T07:51:50;32.28;;;17.75;;
46745;SDS011;32493;50.514;9.678;2024-03-02T07:54:24;30.85;;;17.75;;
46745;SDS011;32493;50.514;9.678;2024-03-02T07:56:54;32.47;;;18.02;;
46745;SDS011;32493;50.514;9.678;2024-03-02T07:59:27;32.17;;;17.70;;
46745;SDS011;32493;50.514;9.678;2024-03-02T08:01:57;27.80;;;16.40;;
46745;SDS011;32493;50.514;9.678;2024-03-02T08:04:30;28.00;;;16.50;;
46745;SDS011;32493;50.514;9.678;2024-03-02T08:07:00;31.73;;;16.70;;
46745;SDS011;32493;50.514;9.678;2024-03-02T08:09:31;29.70;;;15.75;;
46745;SDS011;32493;50.514;9.678;2024-03-02T08:12:03;28.52;;;15.73;;
46745;SDS011;32493;50.514;9.678;2024-03-02T08:14:36;31.00;;;16.80;;
46745;SDS011;32493;50.514;9.678;2024-03-02T08:17:07;27.10;;;14.93;;
46745;SDS011;32493;50.514;9.678;2024-03-02T08:19:38;29.13;;;15.75;;
46745;SDS011;32493;50.514;9.678;2024-03-02T08:22:09;27.50;;;14.65;;
46745;SDS011;32493;50.514;9.678;2024-03-02T08:24:41;26.77;;;16.13;;
46745;SDS011;32493;50.514;9.678;2024-03-02T08:27:12;28.05;;;15.05;;
46745;SDS011;32493;50.514;9.678;2024-03-02T08:29:45;27.13;;;15.38;;
46745;SDS011;32493;50.514;9.678;2024-03-02T08:32:15;27.45;;;15.50;;
46745;SDS011;32493;50.514;9.678;2024-03-02T08:34:47;26.23;;;15.18;;
46745;SDS011;32493;50.514;9.678;2024-03-02T08:37:19;24.30;;;14.30;;
46745;SDS011;32493;50.514;9.678;2024-03-02T08:39:51;25.65;;;14.30;;
46745;SDS011;32493;50.514;9.678;2024-03-02T08:42:24;24.42;;;14.38;;
46745;SDS011;32493;50.514;9.678;2024-03-02T08:44:57;27.15;;;14.75;;
46745;SDS011;32493;50.514;9.678;2024-03-02T08:47:28;26.52;;;15.85;;
46745;SDS011;32493;50.514;9.678;2024-03-02T08:49:58;23.35;;;14.30;;
46745;SDS011;32493;50.514;9.678;2024-03-02T08:52:28;26.00;;;14.63;;
46745;SDS011;32493;50.514;9.678;2024-03-02T08:55:00;24.27;;;14.32;;
46745;SDS011;32493;50.514;9.678;2024-03-02T08:57:30;25.75;;;14.00;;
46745;SDS011;32493;50.514;9.678;2024-03-02T09:00:03;25.35;;;14.93;;
46745;SDS011;32493;50.514;9.678;2024-03-02T09:02:36;22.98;;;14.18;;
46745;SDS011;32493;50.514;9.678;2024-03-02T09:05:06;23.08;;;13.30;;
46745;SDS011;32493;50.514;9.678;2024-03-02T09:07:38;24.50;;;13.90;;
46745;SDS011;32493;50.514;9.678;2024-03-02T09:10:08;23.67;;;13.60;;
46745;SDS011;32493;50.514;9.678;2024-03-02T09:12:39;23.13;;;13.38;;
46745;SDS011;32493;50.514;9.678;2024-03-02T09:15:11;24.45;;;14.13;;
46745;SDS011;32493;50.514;9.678;2024-03-02T09:17:42;22.13;;;12.82;;
46745;SDS011;32493;50.514;9.678;2024-03-02T09:20:12;22.65;;;14.27;;
46745;SDS011;32493;50.514;9.678;2024-03-02T09:22:43;24.92;;;13.18;;
46745;SDS011;32493;50.514;9.678;2024-03-02T09:25:15;23.55;;;13.90;;
46745;SDS011;32493;50.514;9.678;2024-03-02T09:27:45;23.15;;;13.38;;
46745;SDS011;32493;50.514;9.678;2024-03-02T09:30:18;19.35;;;12.65;;
46745;SDS011;32493;50.514;9.678;2024-03-02T09:32:49;20.98;;;12.40;;
46745;SDS011;32493;50.514;9.678;2024-03-02T09:35:39;21.95;;;12.30;;
46745;SDS011;32493;50.514;9.678;2024-03-02T09:38:09;20.50;;;12.30;;
46745;SDS011;32493;50.514;9.678;2024-03-02T09:40:39;22.15;;;12.43;;
46745;SDS011;32493;50.514;9.678;2024-03-02T09:43:11;22.92;;;13.48;;
46745;SDS011;32493;50.514;9.678;2024-03-02T09:45:44;22.20;;;13.05;;
46745;SDS011;32493;50.514;9.678;2024-03-02T09:48:15;19.75;;;11.73;;
46745;SDS011;32493;50.514;9.678;2024-03-02T09:50:47;22.83;;;12.35;;
46745;SDS011;32493;50.514;9.678;2024-03-02T09:53:17;18.80;;;11.90;;
46745;SDS011;32493;50.514;9.678;2024-03-02T09:55:49;20.63;;;12.23;;
46745;SDS011;32493;50.514;9.678;2024-03-02T09:58:20;21.25;;;12.45;;
46745;SDS011;32493;50.514;9.678;2024-03-02T10:00:53;21.55;;;13.02;;
46745;SDS011;32493;50.514;9.678;2024-03-02T10:03:23;22.42;;;13.35;;
46745;SDS011;32493;50.514;9.678;2024-03-02T10:05:54;21.58;;;12.63;;
46745;SDS011;32493;50.514;9.678;2024-03-02T10:08:24;20.20;;;12.80;;
46745;SDS011;32493;50.514;9.678;2024-03-02T10:10:55;23.25;;;12.48;;
46745;SDS011;32493;50.514;9.678;2024-03-02T10:13:26;23.23;;;12.93;;
46745;SDS011;32493;50.514;9.678;2024-03-02T10:16:01;19.15;;;12.48;;
46745;SDS011;32493;50.514;9.678;2024-03-02T10:18:42;19.42;;;11.43;;
46745;SDS011;32493;50.514;9.678;2024-03-02T10:21:13;19.90;;;11.85;;
46745;SDS011;32493;50.514;9.678;2024-03-02T10:23:45;20.35;;;10.63;;
46745;SDS011;32493;50.514;9.678;2024-03-02T10:26:16;16.25;;;10.60;;
46745;SDS011;32493;50.514;9.678;2024-03-02T10:28:47;16.92;;;10.20;;
46745;SDS011;32493;50.514;9.678;2024-03-02T10:31:28;15.30;;;9.45;;
46745;SDS011;32493;50.514;9.678;2024-03-02T10:33:58;14.10;;;9.05;;
46745;SDS011;32493;50.514;9.678;2024-03-02T10:36:29;15.25;;;8.07;;
46745;SDS011;32493;50.514;9.678;2024-03-02T10:39:02;13.63;;;8.57;;
46745;SDS011;32493;50.514;9.678;2024-03-02T10:41:32;12.73;;;7.60;;
46745;SDS011;32493;50.514;9.678;2024-03-02T10:44:06;14.75;;;8.27;;
46745;SDS011;32493;50.514;9.678;2024-03-02T10:46:39;15.98;;;8.82;;
46745;SDS011;32493;50.514;9.678;2024-03-02T10:49:10;16.38;;;9.02;;
46745;SDS011;32493;50.514;9.678;2024-03-02T10:51:47;11.35;;;7.60;;
46745;SDS011;32493;50.514;9.678;2024-03-02T10:54:17;12.90;;;8.05;;
46745;SDS011;32493;50.514;9.678;2024-03-02T10:56:53;13.38;;;8.07;;
46745;SDS011;32493;50.514;9.678;2024-03-02T10:59:32;9.60;;;6.43;;
46745;SDS011;32493;50.514;9.678;2024-03-02T11:02:08;10.80;;;7.10;;
46745;SDS011;32493;50.514;9.678;2024-03-02T11:04:41;12.50;;;7.00;;
46745;SDS011;32493;50.514;9.678;2024-03-02T11:07:12;10.63;;;6.43;;
46745;SDS011;32493;50.514;9.678;2024-03-02T11:09:45;9.00;;;6.25;;
46745;SDS011;32493;50.514;9.678;2024-03-02T11:12:23;7.35;;;5.22;;
46745;SDS011;32493;50.514;9.678;2024-03-02T11:14:56;9.05;;;5.00;;
46745;SDS011;32493;50.514;9.678;2024-03-02T11:17:31;7.90;;;4.78;;
46745;SDS011;32493;50.514;9.678;2024-03-02T11:20:02;7.30;;;4.95;;
46745;SDS011;32493;50.514;9.678;2024-03-02T11:22:35;11.45;;;5.25;;
46745;SDS011;32493;50.514;9.678;2024-03-02T11:25:06;6.55;;;4.63;;
46745;SDS011;32493;50.514;9.678;2024-03-02T11:28:05;7.30;;;4.40;;
46745;SDS011;32493;50.514;9.678;2024-03-02T11:30:48;6.00;;;4.07;;
46745;SDS011;32493;50.514;9.678;2024-03-02T11:33:27;6.78;;;4.28;;
46745;SDS011;32493;50.514;9.678;2024-03-02T11:38:33;6.22;;;3.58;;
46745;SDS011;32493;50.514;9.678;2024-03-02T11:41:05;5.13;;;3.35;;
46745;SDS011;32493;50.514;9.678;2024-03-02T11:43:38;5.65;;;3.25;;
46745;SDS011;32493;50.514;9.678;2024-03-02T11:46:12;6.03;;;3.28;;
46745;SDS011;32493;50.514;9.678;2024-03-02T11:48:45;4.38;;;2.88;;
46745;SDS011;32493;50.514;9.678;2024-03-02T11:51:16;6.30;;;3.05;;
46745;SDS011;32493;50.514;9.678;2024-03-02T11:53:47;6.57;;;2.92;;
46745;SDS011;32493;50.514;9.678;2024-03-02T11:56:18;5.13;;;3.08;;
46745;SDS011;32493;50.514;9.678;2024-03-02T11:58:49;5.20;;;2.72;;
46745;SDS011;32493;50.514;9.678;2024-03-02T12:01:24;5.75;;;2.50;;
46745;SDS011;32493;50.514;9.678;2024-03-02T12:03:58;3.83;;;2.15;;
46745;SDS011;32493;50.514;9.678;2024-03-02T12:06:30;3.85;;;2.10;;
46745;SDS011;32493;50.514;9.678;2024-03-02T12:09:02;2.75;;;1.98;;
46745;SDS011;32493;50.514;9.678;2024-03-02T12:11:38;2.92;;;1.90;;
46745;SDS011;32493;50.514;9.678;2024-03-02T12:14:10;3.15;;;2.00;;
46745;SDS011;32493;50.514;9.678;2024-03-02T12:16:44;4.15;;;1.95;;
46745;SDS011;32493;50.514;9.678;2024-03-02T12:19:17;2.47;;;1.70;;
46745;SDS011;32493;50.514;9.678;2024-03-02T12:21:49;4.93;;;1.70;;
46745;SDS011;32493;50.514;9.678;2024-03-02T12:24:22;3.08;;;1.58;;
46745;SDS011;32493;50.514;9.678;2024-03-02T12:26:56;2.08;;;1.58;;
46745;SDS011;32493;50.514;9.678;2024-03-02T12:29:27;3.42;;;2.20;;
46745;SDS011;32493;50.514;9.678;2024-03-02T12:31:57;3.03;;;1.80;;
46745;SDS011;32493;50.514;9.678;2024-03-02T12:34:31;3.50;;;2.50;;
46745;SDS011;32493;50.514;9.678;2024-03-02T12:37:02;3.22;;;2.00;;
46745;SDS011;32493;50.514;9.678;2024-03-02T12:39:32;2.80;;;2.10;;
46745;SDS011;32493;50.514;9.678;2024-03-02T12:42:05;4.15;;;2.28;;
46745;SDS011;32493;50.514;9.678;2024-03-02T12:44:45;2.75;;;2.22;;
46745;SDS011;32493;50.514;9.678;2024-03-02T12:47:16;3.25;;;1.90;;
46745;SDS011;32493;50.514;9.678;2024-03-02T12:49:49;2.88;;;2.03;;
46745;SDS011;32493;50.514;9.678;2024-03-02T12:52:21;2.10;;;1.48;;
46745;SDS011;32493;50.514;9.678;2024-03-02T12:54:55;3.13;;;1.70;;
46745;SDS011;32493;50.514;9.678;2024-03-02T12:57:27;3.83;;;2.33;;
46745;SDS011;32493;50.514;9.678;2024-03-02T13:00:02;2.42;;;1.55;;
46745;SDS011;32493;50.514;9.678;2024-03-02T13:02:36;2.37;;;1.50;;
46745;SDS011;32493;50.514;9.678;2024-03-02T13:05:14;1.88;;;1.60;;
46745;SDS011;32493;50.514;9.678;2024-03-02T13:07:46;2.03;;;1.70;;
46745;SDS011;32493;50.514;9.678;2024-03-02T13:10:19;6.32;;;1.70;;
46745;SDS011;32493;50.514;9.678;2024-03-02T13:12:49;2.15;;;1.20;;
46745;SDS011;32493;50.514;9.678;2024-03-02T13:15:20;3.90;;;1.50;;
46745;SDS011;32493;50.514;9.678;2024-03-02T13:17:51;3.30;;;1.52;;
46745;SDS011;32493;50.514;9.678;2024-03-02T13:20:32;2.10;;;1.63;;
46745;SDS011;32493;50.514;9.678;2024-03-02T13:23:05;3.10;;;1.50;;
46745;SDS011;32493;50.514;9.678;2024-03-02T13:25:36;5.60;;;1.70;;
46745;SDS011;32493;50.514;9.678;2024-03-02T13:28:10;2.10;;;1.40;;
46745;SDS011;32493;50.514;9.678;2024-03-02T13:30:40;1.90;;;1.45;;
46745;SDS011;32493;50.514;9.678;2024-03-02T13:33:12;2.95;;;1.40;;
46745;SDS011;32493;50.514;9.678;2024-03-02T13:35:52;2.50;;;1.73;;
46745;SDS011;32493;50.514;9.678;2024-03-02T13:38:25;2.70;;;1.60;;
46745;SDS011;32493;50.514;9.678;2024-03-02T13:40:58;2.00;;;1.60;;
46745;SDS011;32493;50.514;9.678;2024-03-02T13:43:33;2.38;;;1.60;;
46745;SDS011;32493;50.514;9.678;2024-03-02T13:46:06;2.75;;;1.60;;
46745;SDS011;32493;50.514;9.678;2024-03-02T13:48:37;1.95;;;1.60;;
46745;SDS011;32493;50.514;9.678;2024-03-02T13:51:12;2.78;;;1.60;;
46745;SDS011;32493;50.514;9.678;2024-03-02T13:53:43;2.50;;;1.52;;
46745;SDS011;32493;50.514;9.678;2024-03-02T13:56:14;1.92;;;1.63;;
46745;SDS011;32493;50.514;9.678;2024-03-02T13:58:45;2.08;;;1.42;;
46745;SDS011;32493;50.514;9.678;2024-03-02T14:01:16;1.60;;;1.30;;
46745;SDS011;32493;50.514;9.678;2024-03-02T14:03:46;1.52;;;1.20;;
46745;SDS011;32493;50.514;9.678;2024-03-02T14:06:20;2.47;;;1.48;;
46745;SDS011;32493;50.514;9.678;2024-03-02T14:08:51;1.67;;;1.40;;
46745;SDS011;32493;50.514;9.678;2024-03-02T14:11:21;1.77;;;1.30;;
46745;SDS011;32493;50.514;9.678;2024-03-02T14:13:52;3.03;;;1.98;;
46745;SDS011;32493;50.514;9.678;2024-03-02T14:16:25;2.55;;;2.28;;
46745;SDS011;32493;50.514;9.678;2024-03-02T14:19:00;3.05;;;1.50;;
46745;SDS011;32493;50.514;9.678;2024-03-02T14:21:36;1.92;;;1.13;;
46745;SDS011;32493;50.514;9.678;2024-03-02T14:26:41;1.65;;;1.42;;
46745;SDS011;32493;50.514;9.678;2024-03-02T14:29:33;2.28;;;1.30;;
46745;SDS011;32493;50.514;9.678;2024-03-02T14:32:06;1.67;;;1.30;;
46745;SDS011;32493;50.514;9.678;2024-03-02T14:34:36;3.70;;;1.63;;
46745;SDS011;32493;50.514;9.678;2024-03-02T14:37:11;2.05;;;1.30;;
46745;SDS011;32493;50.514;9.678;2024-03-02T14:39:44;1.80;;;1.60;;
46745;SDS011;32493;50.514;9.678;2024-03-02T14:42:14;1.75;;;1.30;;
46745;SDS011;32493;50.514;9.678;2024-03-02T14:44:45;2.30;;;1.55;;
46745;SDS011;32493;50.514;9.678;2024-03-02T14:47:15;1.83;;;1.50;;
46745;SDS011;32493;50.514;9.678;2024-03-02T14:49:47;2.15;;;1.70;;
46745;SDS011;32493;50.514;9.678;2024-03-02T14:52:25;1.73;;;1.25;;
46745;SDS011;32493;50.514;9.678;2024-03-02T14:54:57;2.38;;;1.48;;
46745;SDS011;32493;50.514;9.678;2024-03-02T14:57:30;2.65;;;1.60;;
46745;SDS011;32493;50.514;9.678;2024-03-02T15:00:02;3.38;;;1.40;;
46745;SDS011;32493;50.514;9.678;2024-03-02T15:02:40;2.88;;;1.70;;
46745;SDS011;32493;50.514;9.678;2024-03-02T15:05:13;1.92;;;1.70;;
46745;SDS011;32493;50.514;9.678;2024-03-02T15:07:48;2.75;;;1.77;;